Latest Weather Observations for Hobart

IDT60901

Issued at 10:01 pm EST Tuesday 31 May 2016 (issued every 10 minutes, with the page automatically refreshed every 10 minutes)

About weather observations | Map of Hobart area stations | Latest observations for Hobart area | Other Formats
Station Details ID: 094029 Name: HOBART (ELLERSLIE ROAD) Lat: -42.89 Lon: 147.33 Height: 50.5 m
Data from the previous 72 hours. | See also: Recent months at Hobart
Date/Time
EST
Tmp

°C
App
Tmp
°C
Dew
Point
°C
Rel
Hum
%
Delta-T

°C
Wind Press
QNH
hPa
Press
MSL
hPa
Rain
since
9 am
mm
Dir
 
Spd
km/h
Gust
km/h
Spd
kts
Gust
kts
31/10:00pm 4.0 1.6 2.2 88 0.7 N 4 7 2 4 1033.4 1033.4 0.0
31/09:30pm 4.2 1.5 2.7 90 0.6 NNE 6 7 3 4 1033.3 1033.3 0.0
31/09:00pm 4.4 1.5 2.7 89 0.7 NNW 7 9 4 5 1033.2 1033.2 0.0
31/08:30pm 5.0 2.1 2.8 86 0.9 NW 7 9 4 5 1033.1 1033.1 0.0
31/08:00pm 5.3 3.4 2.8 84 1.0 WNW 2 6 1 3 1033.1 1033.1 0.0
31/07:30pm 5.4 2.6 3.0 84 1.0 WNW 7 9 4 5 1033.0 1033.0 0.0
31/07:00pm 5.3 1.7 2.8 84 1.0 W 11 13 6 7 1032.9 1032.9 0.0
31/06:30pm 5.6 2.8 3.2 84 1.0 WNW 7 11 4 6 1032.7 1032.7 0.0
31/06:00pm 6.1 3.6 3.5 83 1.1 NW 6 9 3 5 1032.5 1032.5 0.0
31/05:30pm 6.7 3.2 3.6 80 1.3 NW 11 13 6 7 1032.3 1032.3 0.0
31/05:00pm 7.3 4.7 4.0 79 1.4 WNW 7 9 4 5 1032.1 1032.1 0.0
31/04:30pm 8.1 5.5 4.2 76 1.7 WNW 7 9 4 5 1032.0 1032.0 0.0
31/04:00pm 9.3 6.3 4.3 71 2.2 NNW 9 13 5 7 1032.0 1032.0 0.0
31/03:30pm 10.3 6.8 3.6 63 2.9 NNW 11 13 6 7 1032.0 1032.0 0.0
31/03:00pm 10.9 7.4 3.3 59 3.3 NNW 11 13 6 7 1032.0 1032.0 0.0
31/02:30pm 10.3 7.1 2.8 59 3.2 NNW 9 15 5 8 1032.1 1032.1 0.0
31/02:00pm 10.6 6.6 2.9 59 3.3 NNW 13 19 7 10 1032.3 1032.3 0.0
31/01:30pm 10.6 6.6 2.9 59 3.3 NNW 13 19 7 10 1032.6 1032.6 0.0
31/01:00pm 10.1 5.7 2.8 60 3.1 NNW 15 20 8 11 1032.8 1032.8 0.0
31/12:30pm 9.7 4.9 2.6 61 3.0 NNW 17 22 9 12 1033.1 1033.1 0.0
31/12:00pm 9.5 5.1 2.6 62 2.9 NNW 15 20 8 11 1033.4 1033.4 0.0
31/11:30am 9.2 5.2 2.8 64 2.7 NNW 13 17 7 9 1033.6 1033.6 0.0
31/11:00am 8.4 3.7 3.2 70 2.2 NNW 17 24 9 13 1034.1 1034.1 0.0
31/10:30am 7.7 2.9 2.6 70 2.1 NNW 17 24 9 13 1034.2 1034.2 0.0
31/10:00am 7.1 1.9 2.5 72 1.9 NW 19 28 10 15 1034.3 1034.3 0.0
31/09:30am 6.0 1.1 2.0 75 1.6 NNW 17 26 9 14 1034.2 1034.2 0.0
31/09:00am 5.4 0.9 1.9 78 1.4 NW 15 20 8 11 1034.1 1034.1 0.0
31/08:30am 4.0 -1.0 1.4 83 1.0 NW 17 24 9 13 1034.1 1034.1 0.0
31/08:00am 3.0 -1.3 0.9 86 0.8 NW 13 19 7 10 1033.9 1033.9 0.0
31/07:30am 2.4 -1.6 0.5 87 0.7 NW 11 15 6 8 1033.6 1033.6 0.0
31/07:00am 2.1 -1.9 0.2 87 0.7 NW 11 17 6 9 1033.2 1033.2 0.0
31/06:30am 1.9 -1.7 0.5 90 0.5 NW 9 11 5 6 1032.9 1032.9 0.0
31/06:00am 2.2 -2.2 0.6 89 0.6 NW 13 17 7 9 1032.7 1032.7 0.0
31/05:30am 2.1 -1.5 0.8 91 0.5 WNW 9 15 5 8 1032.4 1032.4 0.0
31/05:00am 2.4 -1.6 0.8 89 0.6 NW 11 15 6 8 1032.3 1032.3 0.0
31/04:30am 2.7 -2.0 0.8 87 0.7 NW 15 22 8 12 1032.1 1032.1 0.0
31/04:00am 2.7 -2.0 0.8 87 0.7 NW 15 20 8 11 1032.0 1032.0 0.0
31/03:30am 2.7 -1.6 0.8 87 0.7 NW 13 20 7 11 1032.0 1032.0 0.0
31/03:00am 2.6 -1.4 0.7 87 0.7 WNW 11 15 6 8 1032.0 1032.0 0.0
31/02:30am 3.0 -0.9 0.9 86 0.8 WNW 11 17 6 9 1032.1 1032.1 0.0
31/02:00am 2.8 -1.5 0.9 87 0.7 NW 13 20 7 11 1032.0 1032.0 0.0
31/01:30am 3.1 -0.8 1.0 86 0.8 NW 11 17 6 9 1032.0 1032.0 0.0
31/01:00am 3.6 0.1 1.3 85 0.9 WNW 9 13 5 7 1032.1 1032.1 0.0
31/12:30am 3.3 -1.4 1.2 86 0.8 NW 15 19 8 10 1032.1 1032.1 0.0
31/12:00am 3.1 -1.2 1.3 88 0.7 NW 13 15 7 8 1032.2 1032.2 0.0
 
Date/Time
EST
Tmp

°C
App
Tmp
°C
Dew
Point
°C
Rel
Hum
%
Delta-T

°C
Wind Press
QNH
hPa
Press
MSL
hPa
Rain
since
9 am
mm
Dir
 
Spd
km/h
Gust
km/h
Spd
kts
Gust
kts
30/11:30pm 3.5 0.0 1.4 86 0.8 NW 9 13 5 7 1032.2 1032.2 0.0
30/11:00pm 3.5 0.0 1.1 84 0.9 NW 9 13 5 7 1032.2 1032.2 0.0
30/10:30pm 3.9 0.8 1.6 85 0.9 NW 7 11 4 6 1032.1 1032.1 0.0
30/10:00pm 4.1 0.6 1.5 83 1.0 NW 9 13 5 7 1031.9 1031.9 0.0
30/09:30pm 4.7 1.6 1.4 79 1.3 WNW 7 11 4 6 1031.7 1031.7 0.0
30/09:00pm 4.7 0.5 1.6 80 1.2 NNW 13 17 7 9 1031.5 1031.5 0.0
30/08:30pm 5.3 3.2 1.8 78 1.4 WNW 2 9 1 5 1031.4 1031.4 0.0
30/08:00pm 5.1 2.1 1.8 79 1.3 W 7 11 4 6 1031.1 1031.1 0.0
30/07:30pm 4.9 1.6 2.4 84 1.0 NW 9 9 5 5 1031.1 1031.1 0.0
30/07:00pm 5.6 2.9 2.4 80 1.3 W 6 9 3 5 1030.9 1030.9 0.0
30/06:30pm 5.8 2.9 2.6 80 1.3 W 7 9 4 5 1030.4 1030.5 0.0
30/06:00pm 5.9 2.6 2.5 79 1.4 W 9 13 5 7 1030.0 1030.1 0.0
30/05:30pm 5.6 2.4 2.9 83 1.1 W 9 11 5 6 1029.7 1029.8 0.0
30/05:00pm 6.4 2.8 3.0 79 1.4 W 11 15 6 8 1029.3 1029.4 0.0
30/04:30pm 7.3 4.1 3.3 76 1.7 W 9 13 5 7 1029.1 1029.2 0.0
30/04:00pm 8.8 5.5 2.3 64 2.7 NW 9 13 5 7 1028.8 1028.9 0.0
30/03:30pm 9.7 5.6 2.0 58 3.2 NW 13 17 7 9 1028.5 1028.6 0.0
30/03:00pm 10.5 7.1 1.9 55 3.6 NNW 9 13 5 7 1028.3 1028.4 0.0
30/02:30pm 9.8 6.0 1.9 58 3.3 NNW 11 19 6 10 1028.2 1028.3 0.0
30/02:00pm 9.6 6.9 2.5 61 3.0 NNW 6 13 3 7 1028.1 1028.2 0.0
30/01:30pm 9.3 6.4 2.4 62 2.9 ESE 7 13 4 7 1028.3 1028.4 0.0
30/01:00pm 9.3 7.0 2.7 63 2.8 SSE 4 7 2 4 1028.3 1028.4 0.0
30/12:30pm 9.1 6.8 2.7 64 2.7 N 4 6 2 3 1028.3 1028.4 0.0
30/12:00pm 9.2 6.3 2.5 63 2.8 WNW 7 11 4 6 1028.3 1028.4 0.0
30/11:30am 9.1 6.5 3.0 65 2.6 NW 6 9 3 5 1028.5 1028.6 0.0
30/11:00am 9.0 6.8 3.1 66 2.5 W 4 7 2 4 1028.6 1028.7 0.0
30/10:30am 8.6 6.4 3.5 70 2.2 S 4 9 2 5 1028.5 1028.6 0.0
30/10:00am 8.1 6.0 3.9 75 1.8 W 4 6 2 3 1028.2 1028.3 0.0
30/09:30am 7.7 3.7 2.9 71 2.0 SW 13 19 7 10 1027.9 1028.0 0.0
30/09:00am 6.1 2.2 3.5 83 1.1 WSW 13 17 7 9 1027.6 1027.7 0.6
30/08:30am 6.2 2.3 3.3 82 1.2 WSW 13 15 7 8 1027.4 1027.5 0.6
30/08:00am 6.0 1.8 3.6 84 1.0 WSW 15 17 8 9 1027.0 1027.1 0.6
30/07:30am 6.2 2.3 3.6 83 1.1 WSW 13 17 7 9 1026.7 1026.8 0.6
30/07:00am 6.6 2.4 3.8 82 1.2 WSW 15 17 8 9 1026.3 1026.4 0.6
30/06:30am 7.4 3.9 3.6 77 1.6 SW 11 15 6 8 1026.1 1026.2 0.6
30/06:00am 7.8 4.8 4.3 78 1.5 SW 9 13 5 7 1025.6 1025.7 0.6
30/05:30am 8.1 5.1 4.2 76 1.7 SW 9 13 5 7 1025.2 1025.3 0.6
30/05:00am 8.0 5.6 5.3 83 1.2 SW 7 11 4 6 1024.9 1025.0 0.6
30/04:30am 8.0 5.7 5.5 84 1.1 SW 7 11 4 6 1024.6 1024.7 0.6
30/04:00am 8.2 7.4 6.5 89 0.8 CALM 0 9 0 5 1024.3 1024.4 0.6
30/03:30am 8.1 7.3 6.6 90 0.7 CALM 0 0 0 0 1024.1 1024.2 0.6
30/03:00am 8.1 7.3 6.3 88 0.8 CALM 0 0 0 0 1023.8 1023.9 0.6
30/02:30am 8.3 7.5 6.3 87 0.9 CALM 0 0 0 0 1023.8 1023.9 0.6
30/02:00am 8.3 7.5 6.3 87 0.9 CALM 0 0 0 0 1023.4 1023.5 0.6
30/01:30am 8.2 6.1 6.5 89 0.8 W 7 7 4 4 1023.1 1023.2 0.6
30/01:00am 8.5 6.6 6.5 87 0.9 NW 6 9 3 5 1022.9 1023.0 0.6
30/12:30am 8.8 8.0 6.4 85 1.1 CALM 0 6 0 3 1022.7 1022.8 0.6
30/12:00am 8.4 6.8 6.4 87 0.9 SW 4 9 2 5 1022.7 1022.8 0.6
 
Date/Time
EST
Tmp

°C
App
Tmp
°C
Dew
Point
°C
Rel
Hum
%
Delta-T

°C
Wind Press
QNH
hPa
Press
MSL
hPa
Rain
since
9 am
mm
Dir
 
Spd
km/h
Gust
km/h
Spd
kts
Gust
kts
29/11:30pm 8.4 7.6 6.4 87 0.9 CALM 0 0 0 0 1022.5 1022.6 0.6
29/11:00pm 8.5 6.5 6.1 85 1.1 WSW 6 9 3 5 1022.3 1022.4 0.6
29/10:30pm 9.0 6.5 6.6 85 1.1 N 9 15 5 8 1022.1 1022.2 0.6
29/10:00pm 9.3 6.3 6.0 80 1.5 SW 11 15 6 8 1021.9 1022.0 0.6
29/09:30pm 8.9 6.0 6.7 86 1.0 SSW 11 15 6 8 1021.7 1021.8 0.6
29/09:00pm 9.3 4.9 6.7 84 1.2 SW 19 22 10 12 1021.4 1021.5 0.6
29/08:30pm 9.1 6.3 7.0 87 1.0 SW 11 15 6 8 1021.2 1021.3 0.6
29/08:00pm 9.2 6.2 7.7 90 0.7 SSW 13 17 7 9 1020.9 1021.0 0.6
29/07:30pm 8.9 5.8 7.4 90 0.7 SSW 13 17 7 9 1020.6 1020.7 0.6
29/07:00pm 9.0 7.0 7.3 89 0.8 S 7 9 4 5 1020.2 1020.3 0.6
29/06:30pm 9.5 5.3 7.4 87 1.0 SW 19 26 10 14 1019.7 1019.8 0.6
29/06:00pm 9.4 5.2 8.2 92 0.6 SSW 20 32 11 17 1019.4 1019.5 0.6
29/05:30pm 9.5 7.2 7.6 88 0.9 SSW 9 15 5 8 1019.0 1019.1 0.4
29/05:00pm 9.6 5.8 7.7 88 0.9 SSW 17 22 9 12 1018.4 1018.5 0.4
29/04:30pm 9.9 6.4 7.4 84 1.2 SW 15 20 8 11 1018.1 1018.1 0.4
29/04:00pm 10.8 6.7 6.1 73 2.2 SSW 17 28 9 15 1017.7 1017.7 0.2
29/03:30pm 11.3 8.0 6.2 71 2.4 SSW 13 22 7 12 1017.4 1017.4 0.2
29/03:00pm 11.3 7.1 5.9 69 2.5 SW 17 28 9 15 1017.1 1017.1 0.2
29/02:30pm 11.4 8.4 7.5 77 1.9 S 13 17 7 9 1016.7 1016.7 0.2
29/02:00pm 11.4 7.4 6.8 73 2.2 S 17 24 9 13 1016.5 1016.5 0.2
29/01:30pm 12.2 7.6 5.5 63 3.1 SW 19 28 10 15 1016.2 1016.2 0.2
29/01:00pm 12.6 7.8 5.8 63 3.2 SSW 20 33 11 18 1015.9 1015.9 0.2
29/12:30pm 11.6 8.3 6.3 70 2.5 S 13 19 7 10 1015.8 1015.8 0.2
29/12:00pm 11.1 8.4 7.4 78 1.8 SSW 11 19 6 10 1015.9 1015.9 0.2
29/11:30am 11.7 8.0 6.2 69 2.6 SSW 15 26 8 14 1015.9 1015.9 0.0
29/11:00am 10.9 7.6 6.2 73 2.2 SSW 13 22 7 12 1015.9 1015.9 0.0
29/10:30am 10.8 7.5 6.3 74 2.1 SSW 13 24 7 13 1015.7 1015.7 0.0
29/10:00am 10.6 6.1 6.3 75 2.0 SSW 19 30 10 16 1015.4 1015.4 0.0
29/09:30am 10.5 7.1 5.7 72 2.2 SSW 13 30 7 16 1015.1 1015.1 0.0
29/09:00am 10.1 6.3 6.0 76 1.9 SW 15 22 8 12 1014.8 1014.8 2.8
29/08:30am 10.0 5.8 5.6 74 2.0 SW 17 22 9 12 1014.3 1014.3 2.8
29/08:00am 9.4 5.3 6.2 80 1.5 SW 17 22 9 12 1014.0 1014.0 2.8
29/07:30am 9.5 6.1 5.8 78 1.7 SSW 13 26 7 14 1013.5 1013.5 2.8
29/07:00am 9.3 3.9 6.3 81 1.4 SW 24 33 13 18 1013.1 1013.1 2.8
29/06:30am 9.4 3.5 5.9 79 1.6 SW 26 37 14 20 1012.4 1012.4 2.4
29/06:00am 9.6 5.0 5.7 76 1.8 SW 19 28 10 15 1012.3 1012.3 2.4
29/05:30am 9.4 5.9 5.4 76 1.8 WSW 13 24 7 13 1012.0 1012.0 2.4
29/05:00am 8.8 5.7 5.5 80 1.5 WSW 11 19 6 10 1011.8 1011.8 2.4
29/04:30am 8.1 5.5 6.1 87 0.9 NW 9 13 5 7 1011.6 1011.6 2.4
29/04:00am 8.5 5.9 6.3 86 1.0 N 9 13 5 7 1011.3 1011.3 2.2
29/03:30am 9.1 5.7 5.8 80 1.5 W 13 22 7 12 1011.2 1011.2 2.2
29/03:00am 9.1 4.3 5.6 79 1.6 SW 20 28 11 15 1011.0 1011.0 1.8
29/02:30am 8.9 3.8 5.8 81 1.4 SW 22 35 12 19 1010.8 1010.8 1.2
29/02:00am 9.2 5.3 5.2 76 1.8 SW 15 30 8 16 1010.8 1010.8 0.6
29/01:30am 8.2 5.1 5.5 83 1.2 NNW 11 15 6 8 1010.7 1010.7 0.2
29/01:00am 8.2 5.5 5.8 85 1.1 N 9 13 5 7 1010.5 1010.5 0.2
29/12:30am 8.1 5.4 5.7 85 1.1 NNW 9 17 5 9 1010.5 1010.5 0.0
29/12:00am 8.5 5.8 5.4 81 1.4 N 9 15 5 8 1010.4 1010.4 0.0
 
Date/Time
EST
Tmp

°C
App
Tmp
°C
Dew
Point
°C
Rel
Hum
%
Delta-T

°C
Wind Press
QNH
hPa
Press
MSL
hPa
Rain
since
9 am
mm
Dir
 
Spd
km/h
Gust
km/h
Spd
kts
Gust
kts
28/11:30pm 8.3 5.2 5.7 84 1.2 NNW 11 15 6 8 1010.5 1010.5 0.0
28/11:00pm 8.7 5.2 5.6 81 1.4 WNW 13 22 7 12 1010.4 1010.4 0.0
28/10:30pm 8.0 5.1 4.8 80 1.4 WNW 9 13 5 7 1010.4 1010.4 0.0

Latest Capital City Observations: Canberra | Sydney | Melbourne | Brisbane | Adelaide | Perth | Hobart | Darwin

Other Formats:

Comma delimited format used in spreadsheet applications
http://www.bom.gov.au/fwo/IDT60901/IDT60901.94970.axf

JavaScript Object Notation format (JSON) in row-major order
http://www.bom.gov.au/fwo/IDT60901/IDT60901.94970.json